Stevenston, United Kingdom
Current Conditions -  °F | °C
As of 5:50 AM on Tuesday 27 Jan 2015 (Local Time) from EGPK Reporting Station
Rain Showers Rain Showers  
Wind Chill: 40°   Ceiling: 900
Heat Index: 45°   Visibility: 6mi
Dew Point: 43°   Wind: 9mph
Humidity: 93%   Direction: 250°WSW
Pressure: 30.24"   Gusts: NA
Location:  55.64°N, 4.75°W
Report Text: EGPK 270550Z 25008KT 9000 -SHRA FEW004 BKN009 07/06 Q1024
Loading
Personal Weather Stations






























Interactive Weather Map New forecast layout! Learn more

10-Day Weather Forecast

Advertisements
Track Severe Weather on mobile